sensor_id;sensor_type;location;lat;lon;timestamp;temperature;humidity
12130;DHT22;6128;59.340;18.040;2024-01-30T00:01:17;4.70;99.90
12130;DHT22;6128;59.340;18.040;2024-01-30T00:03:44;4.70;99.90
12130;DHT22;6128;59.340;18.040;2024-01-30T00:06:11;4.60;99.90
12130;DHT22;6128;59.340;18.040;2024-01-30T00:08:38;4.60;99.90
12130;DHT22;6128;59.340;18.040;2024-01-30T00:11:07;4.60;99.90
12130;DHT22;6128;59.340;18.040;2024-01-30T00:13:34;4.50;99.90
12130;DHT22;6128;59.340;18.040;2024-01-30T00:16:01;4.50;99.90
12130;DHT22;6128;59.340;18.040;2024-01-30T00:18:29;4.50;99.90
12130;DHT22;6128;59.340;18.040;2024-01-30T00:20:57;4.50;99.90
12130;DHT22;6128;59.340;18.040;2024-01-30T00:23:24;4.50;99.90
12130;DHT22;6128;59.340;18.040;2024-01-30T00:25:51;4.40;99.90
12130;DHT22;6128;59.340;18.040;2024-01-30T00:28:19;4.40;99.90
12130;DHT22;6128;59.340;18.040;2024-01-30T00:30:46;4.40;99.90
12130;DHT22;6128;59.340;18.040;2024-01-30T00:33:13;4.40;99.90
12130;DHT22;6128;59.340;18.040;2024-01-30T00:35:41;4.40;99.90
12130;DHT22;6128;59.340;18.040;2024-01-30T00:38:08;4.40;99.90
12130;DHT22;6128;59.340;18.040;2024-01-30T00:40:35;4.40;99.90
12130;DHT22;6128;59.340;18.040;2024-01-30T00:43:03;4.30;99.90
12130;DHT22;6128;59.340;18.040;2024-01-30T00:45:31;4.40;99.90
12130;DHT22;6128;59.340;18.040;2024-01-30T00:47:58;4.40;99.90
12130;DHT22;6128;59.340;18.040;2024-01-30T00:50:25;4.40;99.90
12130;DHT22;6128;59.340;18.040;2024-01-30T00:52:53;4.30;99.90
12130;DHT22;6128;59.340;18.040;2024-01-30T00:55:20;4.30;99.90
12130;DHT22;6128;59.340;18.040;2024-01-30T00:57:47;4.30;99.90
12130;DHT22;6128;59.340;18.040;2024-01-30T01:00:15;4.30;99.90
12130;DHT22;6128;59.340;18.040;2024-01-30T01:02:44;4.30;99.90
12130;DHT22;6128;59.340;18.040;2024-01-30T01:05:11;4.30;99.90
12130;DHT22;6128;59.340;18.040;2024-01-30T01:07:37;4.30;99.90
12130;DHT22;6128;59.340;18.040;2024-01-30T01:10:06;4.30;99.90
12130;DHT22;6128;59.340;18.040;2024-01-30T01:12:34;4.30;99.90
12130;DHT22;6128;59.340;18.040;2024-01-30T01:15:01;4.20;99.90
12130;DHT22;6128;59.340;18.040;2024-01-30T01:17:28;4.20;99.90
12130;DHT22;6128;59.340;18.040;2024-01-30T01:19:57;4.20;99.90
12130;DHT22;6128;59.340;18.040;2024-01-30T01:22:24;4.20;99.90
12130;DHT22;6128;59.340;18.040;2024-01-30T01:24:51;4.20;99.90
12130;DHT22;6128;59.340;18.040;2024-01-30T01:27:18;4.20;99.90
12130;DHT22;6128;59.340;18.040;2024-01-30T01:29:45;4.10;99.90
12130;DHT22;6128;59.340;18.040;2024-01-30T01:32:12;4.10;99.90
12130;DHT22;6128;59.340;18.040;2024-01-30T01:34:39;4.10;99.90
12130;DHT22;6128;59.340;18.040;2024-01-30T01:37:08;4.00;99.90
12130;DHT22;6128;59.340;18.040;2024-01-30T01:39:35;4.00;99.90
12130;DHT22;6128;59.340;18.040;2024-01-30T01:42:02;4.00;99.90
12130;DHT22;6128;59.340;18.040;2024-01-30T01:44:29;4.00;99.90
12130;DHT22;6128;59.340;18.040;2024-01-30T01:46:57;3.90;99.90
12130;DHT22;6128;59.340;18.040;2024-01-30T01:49:25;3.90;99.90
12130;DHT22;6128;59.340;18.040;2024-01-30T01:51:55;3.90;99.90
12130;DHT22;6128;59.340;18.040;2024-01-30T01:54:25;3.90;99.90
12130;DHT22;6128;59.340;18.040;2024-01-30T01:56:53;3.90;99.90
12130;DHT22;6128;59.340;18.040;2024-01-30T01:59:22;3.80;99.90
12130;DHT22;6128;59.340;18.040;2024-01-30T02:01:51;3.80;99.90
12130;DHT22;6128;59.340;18.040;2024-01-30T02:04:18;3.70;99.90
12130;DHT22;6128;59.340;18.040;2024-01-30T02:06:46;3.70;99.90
12130;DHT22;6128;59.340;18.040;2024-01-30T02:09:13;3.60;99.90
12130;DHT22;6128;59.340;18.040;2024-01-30T02:11:41;3.60;99.90
12130;DHT22;6128;59.340;18.040;2024-01-30T02:14:09;3.60;99.90
12130;DHT22;6128;59.340;18.040;2024-01-30T02:16:36;3.50;99.90
12130;DHT22;6128;59.340;18.040;2024-01-30T02:19:03;3.50;99.90
12130;DHT22;6128;59.340;18.040;2024-01-30T02:21:32;3.50;99.90
12130;DHT22;6128;59.340;18.040;2024-01-30T02:24:00;3.50;99.90
12130;DHT22;6128;59.340;18.040;2024-01-30T02:26:28;3.40;99.90
12130;DHT22;6128;59.340;18.040;2024-01-30T02:28:55;3.40;99.90
12130;DHT22;6128;59.340;18.040;2024-01-30T02:31:22;3.30;99.90
12130;DHT22;6128;59.340;18.040;2024-01-30T02:33:49;3.30;99.90
12130;DHT22;6128;59.340;18.040;2024-01-30T02:36:16;3.30;99.90
12130;DHT22;6128;59.340;18.040;2024-01-30T02:38:45;3.30;99.90
12130;DHT22;6128;59.340;18.040;2024-01-30T02:41:12;3.20;99.90
12130;DHT22;6128;59.340;18.040;2024-01-30T02:43:40;3.20;99.90
12130;DHT22;6128;59.340;18.040;2024-01-30T02:46:07;3.20;99.90
12130;DHT22;6128;59.340;18.040;2024-01-30T02:48:34;3.10;99.90
12130;DHT22;6128;59.340;18.040;2024-01-30T02:51:01;3.10;99.90
12130;DHT22;6128;59.340;18.040;2024-01-30T02:53:28;3.10;99.90
12130;DHT22;6128;59.340;18.040;2024-01-30T02:55:56;3.10;99.90
12130;DHT22;6128;59.340;18.040;2024-01-30T02:58:23;3.00;99.90
12130;DHT22;6128;59.340;18.040;2024-01-30T03:00:50;3.00;99.90
12130;DHT22;6128;59.340;18.040;2024-01-30T03:03:17;3.00;99.90
12130;DHT22;6128;59.340;18.040;2024-01-30T03:05:44;3.00;99.90
12130;DHT22;6128;59.340;18.040;2024-01-30T03:08:12;3.00;99.90
12130;DHT22;6128;59.340;18.040;2024-01-30T03:10:39;3.10;99.90
12130;DHT22;6128;59.340;18.040;2024-01-30T03:13:07;3.10;99.90
12130;DHT22;6128;59.340;18.040;2024-01-30T03:15:34;3.10;99.90
12130;DHT22;6128;59.340;18.040;2024-01-30T03:18:02;3.00;99.90
12130;DHT22;6128;59.340;18.040;2024-01-30T03:20:29;3.00;99.90
12130;DHT22;6128;59.340;18.040;2024-01-30T03:22:59;3.00;99.90
12130;DHT22;6128;59.340;18.040;2024-01-30T03:25:26;3.00;99.90
12130;DHT22;6128;59.340;18.040;2024-01-30T03:27:53;3.00;99.90
12130;DHT22;6128;59.340;18.040;2024-01-30T03:30:22;3.00;99.90
12130;DHT22;6128;59.340;18.040;2024-01-30T03:32:49;3.00;99.90
12130;DHT22;6128;59.340;18.040;2024-01-30T03:35:16;3.00;99.90
12130;DHT22;6128;59.340;18.040;2024-01-30T03:37:43;3.00;99.90
12130;DHT22;6128;59.340;18.040;2024-01-30T03:40:11;3.00;99.90
12130;DHT22;6128;59.340;18.040;2024-01-30T03:42:38;2.90;99.90
12130;DHT22;6128;59.340;18.040;2024-01-30T03:45:06;2.90;99.90
12130;DHT22;6128;59.340;18.040;2024-01-30T03:47:34;2.90;99.90
12130;DHT22;6128;59.340;18.040;2024-01-30T03:50:01;2.90;99.90
12130;DHT22;6128;59.340;18.040;2024-01-30T03:52:30;2.90;99.90
12130;DHT22;6128;59.340;18.040;2024-01-30T03:54:57;2.90;99.90
12130;DHT22;6128;59.340;18.040;2024-01-30T03:57:24;2.90;99.90
12130;DHT22;6128;59.340;18.040;2024-01-30T03:59:51;2.90;99.90
12130;DHT22;6128;59.340;18.040;2024-01-30T04:02:19;2.90;99.90
12130;DHT22;6128;59.340;18.040;2024-01-30T04:04:47;3.00;99.90
12130;DHT22;6128;59.340;18.040;2024-01-30T04:07:14;3.00;99.90
12130;DHT22;6128;59.340;18.040;2024-01-30T04:09:41;2.90;99.90
12130;DHT22;6128;59.340;18.040;2024-01-30T04:12:09;2.90;99.90
12130;DHT22;6128;59.340;18.040;2024-01-30T04:14:37;2.90;99.90
12130;DHT22;6128;59.340;18.040;2024-01-30T04:17:04;2.90;99.90
12130;DHT22;6128;59.340;18.040;2024-01-30T04:19:31;2.90;99.90
12130;DHT22;6128;59.340;18.040;2024-01-30T04:22:00;2.90;99.90
12130;DHT22;6128;59.340;18.040;2024-01-30T04:24:27;2.90;99.90
12130;DHT22;6128;59.340;18.040;2024-01-30T04:26:54;2.80;99.90
12130;DHT22;6128;59.340;18.040;2024-01-30T04:29:21;2.80;99.90
12130;DHT22;6128;59.340;18.040;2024-01-30T04:31:49;2.80;99.90
12130;DHT22;6128;59.340;18.040;2024-01-30T04:34:16;2.80;99.90
12130;DHT22;6128;59.340;18.040;2024-01-30T04:36:44;2.70;99.90
12130;DHT22;6128;59.340;18.040;2024-01-30T04:39:13;2.70;99.90
12130;DHT22;6128;59.340;18.040;2024-01-30T04:41:40;2.70;99.90
12130;DHT22;6128;59.340;18.040;2024-01-30T04:44:07;2.60;99.90
12130;DHT22;6128;59.340;18.040;2024-01-30T04:46:34;2.60;99.90
12130;DHT22;6128;59.340;18.040;2024-01-30T04:49:01;2.50;99.90
12130;DHT22;6128;59.340;18.040;2024-01-30T04:51:29;2.50;99.90
12130;DHT22;6128;59.340;18.040;2024-01-30T04:53:56;2.50;99.90
12130;DHT22;6128;59.340;18.040;2024-01-30T04:56:24;2.50;99.90
12130;DHT22;6128;59.340;18.040;2024-01-30T04:58:51;2.50;99.90
12130;DHT22;6128;59.340;18.040;2024-01-30T05:01:18;2.50;99.90
12130;DHT22;6128;59.340;18.040;2024-01-30T05:03:45;2.50;99.90
12130;DHT22;6128;59.340;18.040;2024-01-30T05:06:12;2.50;99.90
12130;DHT22;6128;59.340;18.040;2024-01-30T05:08:39;2.50;99.90
12130;DHT22;6128;59.340;18.040;2024-01-30T05:11:07;2.50;99.90
12130;DHT22;6128;59.340;18.040;2024-01-30T05:13:35;2.50;99.90
12130;DHT22;6128;59.340;18.040;2024-01-30T05:16:03;2.60;99.90
12130;DHT22;6128;59.340;18.040;2024-01-30T05:18:30;2.60;99.90
12130;DHT22;6128;59.340;18.040;2024-01-30T05:20:57;2.60;99.90
12130;DHT22;6128;59.340;18.040;2024-01-30T05:23:24;2.70;99.90
12130;DHT22;6128;59.340;18.040;2024-01-30T05:25:51;2.60;99.90
12130;DHT22;6128;59.340;18.040;2024-01-30T05:28:18;2.70;99.90
12130;DHT22;6128;59.340;18.040;2024-01-30T05:30:46;2.70;99.90
12130;DHT22;6128;59.340;18.040;2024-01-30T05:33:13;2.60;99.90
12130;DHT22;6128;59.340;18.040;2024-01-30T05:35:40;2.60;99.90
12130;DHT22;6128;59.340;18.040;2024-01-30T05:38:08;2.70;99.90
12130;DHT22;6128;59.340;18.040;2024-01-30T05:40:35;2.60;99.90
12130;DHT22;6128;59.340;18.040;2024-01-30T05:43:02;2.70;99.90
12130;DHT22;6128;59.340;18.040;2024-01-30T05:45:29;2.60;99.90
12130;DHT22;6128;59.340;18.040;2024-01-30T05:47:58;2.60;99.90
12130;DHT22;6128;59.340;18.040;2024-01-30T05:50:25;2.60;99.90
12130;DHT22;6128;59.340;18.040;2024-01-30T05:52:52;2.60;99.90
12130;DHT22;6128;59.340;18.040;2024-01-30T05:55:19;2.60;99.90
12130;DHT22;6128;59.340;18.040;2024-01-30T05:57:46;2.60;99.90
12130;DHT22;6128;59.340;18.040;2024-01-30T06:00:14;2.60;99.90
12130;DHT22;6128;59.340;18.040;2024-01-30T06:02:42;2.60;99.90
12130;DHT22;6128;59.340;18.040;2024-01-30T06:05:10;2.60;99.90
12130;DHT22;6128;59.340;18.040;2024-01-30T06:07:37;2.60;99.90
12130;DHT22;6128;59.340;18.040;2024-01-30T06:10:06;2.50;99.90
12130;DHT22;6128;59.340;18.040;2024-01-30T06:12:34;2.50;99.90
12130;DHT22;6128;59.340;18.040;2024-01-30T06:15:01;2.60;99.90
12130;DHT22;6128;59.340;18.040;2024-01-30T06:17:28;2.60;99.90
12130;DHT22;6128;59.340;18.040;2024-01-30T06:19:56;2.60;99.90
12130;DHT22;6128;59.340;18.040;2024-01-30T06:22:24;2.60;99.90
12130;DHT22;6128;59.340;18.040;2024-01-30T06:24:51;2.60;99.90
12130;DHT22;6128;59.340;18.040;2024-01-30T06:27:18;2.60;99.90
12130;DHT22;6128;59.340;18.040;2024-01-30T06:29:45;2.60;99.90
12130;DHT22;6128;59.340;18.040;2024-01-30T06:32:12;2.70;99.90
12130;DHT22;6128;59.340;18.040;2024-01-30T06:34:40;2.70;99.90
12130;DHT22;6128;59.340;18.040;2024-01-30T06:37:09;2.70;99.90
12130;DHT22;6128;59.340;18.040;2024-01-30T06:39:38;2.80;99.90
12130;DHT22;6128;59.340;18.040;2024-01-30T06:42:05;2.80;99.90
12130;DHT22;6128;59.340;18.040;2024-01-30T06:44:32;2.80;99.90
12130;DHT22;6128;59.340;18.040;2024-01-30T06:46:59;2.80;99.90
12130;DHT22;6128;59.340;18.040;2024-01-30T06:49:25;2.80;99.90
12130;DHT22;6128;59.340;18.040;2024-01-30T06:51:52;2.80;99.90
12130;DHT22;6128;59.340;18.040;2024-01-30T06:54:19;2.90;99.90
12130;DHT22;6128;59.340;18.040;2024-01-30T06:56:48;2.80;99.90
12130;DHT22;6128;59.340;18.040;2024-01-30T06:59:15;2.80;99.90
12130;DHT22;6128;59.340;18.040;2024-01-30T07:01:42;2.80;99.90
12130;DHT22;6128;59.340;18.040;2024-01-30T07:04:09;2.80;99.90
12130;DHT22;6128;59.340;18.040;2024-01-30T07:06:36;2.80;99.90
12130;DHT22;6128;59.340;18.040;2024-01-30T07:09:03;2.80;99.90
12130;DHT22;6128;59.340;18.040;2024-01-30T07:11:30;2.80;99.90
12130;DHT22;6128;59.340;18.040;2024-01-30T07:13:59;2.90;99.90
12130;DHT22;6128;59.340;18.040;2024-01-30T07:16:29;2.90;99.90
12130;DHT22;6128;59.340;18.040;2024-01-30T07:18:56;2.80;99.90
12130;DHT22;6128;59.340;18.040;2024-01-30T07:21:23;2.80;99.90
12130;DHT22;6128;59.340;18.040;2024-01-30T07:23:53;2.80;99.90
12130;DHT22;6128;59.340;18.040;2024-01-30T07:26:20;2.80;99.90
12130;DHT22;6128;59.340;18.040;2024-01-30T07:28:48;2.80;99.90
12130;DHT22;6128;59.340;18.040;2024-01-30T07:31:17;2.90;99.90
12130;DHT22;6128;59.340;18.040;2024-01-30T07:33:46;2.90;99.90
12130;DHT22;6128;59.340;18.040;2024-01-30T07:36:15;2.90;99.90
12130;DHT22;6128;59.340;18.040;2024-01-30T07:38:42;2.90;99.90
12130;DHT22;6128;59.340;18.040;2024-01-30T07:41:09;2.90;99.90
12130;DHT22;6128;59.340;18.040;2024-01-30T07:43:38;2.90;99.90
12130;DHT22;6128;59.340;18.040;2024-01-30T07:46:05;2.90;99.90
12130;DHT22;6128;59.340;18.040;2024-01-30T07:48:34;3.00;99.90
12130;DHT22;6128;59.340;18.040;2024-01-30T07:51:01;3.00;99.90
12130;DHT22;6128;59.340;18.040;2024-01-30T07:53:29;3.10;99.90
12130;DHT22;6128;59.340;18.040;2024-01-30T07:55:56;3.10;99.90
12130;DHT22;6128;59.340;18.040;2024-01-30T07:58:23;3.10;99.90
12130;DHT22;6128;59.340;18.040;2024-01-30T08:00:52;3.10;99.90
12130;DHT22;6128;59.340;18.040;2024-01-30T08:03:19;3.10;99.90
12130;DHT22;6128;59.340;18.040;2024-01-30T08:05:48;3.10;99.90
12130;DHT22;6128;59.340;18.040;2024-01-30T08:08:15;3.10;99.90
12130;DHT22;6128;59.340;18.040;2024-01-30T08:10:42;3.10;99.90
12130;DHT22;6128;59.340;18.040;2024-01-30T08:13:09;3.10;99.90
12130;DHT22;6128;59.340;18.040;2024-01-30T08:15:36;3.10;99.90
12130;DHT22;6128;59.340;18.040;2024-01-30T08:18:03;3.10;99.90
12130;DHT22;6128;59.340;18.040;2024-01-30T08:20:32;3.10;99.90
12130;DHT22;6128;59.340;18.040;2024-01-30T08:23:01;3.10;99.90
12130;DHT22;6128;59.340;18.040;2024-01-30T08:25:28;3.10;99.90
12130;DHT22;6128;59.340;18.040;2024-01-30T08:27:55;3.20;99.90
12130;DHT22;6128;59.340;18.040;2024-01-30T08:30:22;3.20;99.90
12130;DHT22;6128;59.340;18.040;2024-01-30T08:32:49;3.20;99.90
12130;DHT22;6128;59.340;18.040;2024-01-30T08:35:17;3.20;99.90
12130;DHT22;6128;59.340;18.040;2024-01-30T08:37:44;3.30;99.90
12130;DHT22;6128;59.340;18.040;2024-01-30T08:40:12;3.30;99.90
12130;DHT22;6128;59.340;18.040;2024-01-30T08:42:40;3.30;99.90
12130;DHT22;6128;59.340;18.040;2024-01-30T08:45:07;3.40;99.90
12130;DHT22;6128;59.340;18.040;2024-01-30T08:47:34;3.40;99.90
12130;DHT22;6128;59.340;18.040;2024-01-30T08:50:01;3.40;99.90
12130;DHT22;6128;59.340;18.040;2024-01-30T08:52:29;3.40;99.90
12130;DHT22;6128;59.340;18.040;2024-01-30T08:54:56;3.40;99.90
12130;DHT22;6128;59.340;18.040;2024-01-30T08:57:25;3.40;99.90
12130;DHT22;6128;59.340;18.040;2024-01-30T08:59:54;3.40;99.90
12130;DHT22;6128;59.340;18.040;2024-01-30T09:02:21;3.40;99.90
12130;DHT22;6128;59.340;18.040;2024-01-30T09:04:48;3.40;99.90
12130;DHT22;6128;59.340;18.040;2024-01-30T09:07:15;3.50;99.90
12130;DHT22;6128;59.340;18.040;2024-01-30T09:09:42;3.50;99.90
12130;DHT22;6128;59.340;18.040;2024-01-30T09:12:09;3.50;99.90
12130;DHT22;6128;59.340;18.040;2024-01-30T09:14:39;3.50;99.90
12130;DHT22;6128;59.340;18.040;2024-01-30T09:17:06;3.50;99.90
12130;DHT22;6128;59.340;18.040;2024-01-30T09:19:33;3.50;99.90
12130;DHT22;6128;59.340;18.040;2024-01-30T09:22:00;3.60;99.90
12130;DHT22;6128;59.340;18.040;2024-01-30T09:24:27;3.60;99.90
12130;DHT22;6128;59.340;18.040;2024-01-30T09:26:54;3.70;99.90
12130;DHT22;6128;59.340;18.040;2024-01-30T09:29:21;3.70;99.90
12130;DHT22;6128;59.340;18.040;2024-01-30T09:31:50;3.70;99.90
12130;DHT22;6128;59.340;18.040;2024-01-30T09:34:17;3.80;99.90
12130;DHT22;6128;59.340;18.040;2024-01-30T09:36:44;3.80;99.90
12130;DHT22;6128;59.340;18.040;2024-01-30T09:39:11;3.80;99.90
12130;DHT22;6128;59.340;18.040;2024-01-30T09:41:44;3.80;99.90
12130;DHT22;6128;59.340;18.040;2024-01-30T09:44:12;3.80;99.90
12130;DHT22;6128;59.340;18.040;2024-01-30T09:46:40;3.80;99.90
12130;DHT22;6128;59.340;18.040;2024-01-30T09:49:09;3.80;99.90
12130;DHT22;6128;59.340;18.040;2024-01-30T09:51:36;3.90;99.90
12130;DHT22;6128;59.340;18.040;2024-01-30T09:54:04;4.00;99.90
12130;DHT22;6128;59.340;18.040;2024-01-30T09:56:31;4.10;99.90
12130;DHT22;6128;59.340;18.040;2024-01-30T09:58:58;4.10;99.90
12130;DHT22;6128;59.340;18.040;2024-01-30T10:01:25;4.20;99.90
12130;DHT22;6128;59.340;18.040;2024-01-30T10:03:55;4.20;99.90
12130;DHT22;6128;59.340;18.040;2024-01-30T10:06:24;4.30;99.90
12130;DHT22;6128;59.340;18.040;2024-01-30T10:08:52;4.30;99.90
12130;DHT22;6128;59.340;18.040;2024-01-30T10:11:19;4.30;99.90
12130;DHT22;6128;59.340;18.040;2024-01-30T10:13:46;4.30;99.90
12130;DHT22;6128;59.340;18.040;2024-01-30T10:16:14;4.40;99.90
12130;DHT22;6128;59.340;18.040;2024-01-30T10:18:42;4.40;99.90
12130;DHT22;6128;59.340;18.040;2024-01-30T10:21:09;4.40;99.90
12130;DHT22;6128;59.340;18.040;2024-01-30T10:23:38;4.40;99.90
12130;DHT22;6128;59.340;18.040;2024-01-30T10:26:07;4.50;99.90
12130;DHT22;6128;59.340;18.040;2024-01-30T10:28:34;4.50;99.90
12130;DHT22;6128;59.340;18.040;2024-01-30T10:31:01;4.50;99.90
12130;DHT22;6128;59.340;18.040;2024-01-30T10:33:29;4.50;99.90
12130;DHT22;6128;59.340;18.040;2024-01-30T10:36:00;4.60;99.90
12130;DHT22;6128;59.340;18.040;2024-01-30T10:38:29;4.60;99.90
12130;DHT22;6128;59.340;18.040;2024-01-30T10:40:59;4.70;99.90
12130;DHT22;6128;59.340;18.040;2024-01-30T10:43:31;4.70;99.90
12130;DHT22;6128;59.340;18.040;2024-01-30T10:46:10;4.70;99.90
12130;DHT22;6128;59.340;18.040;2024-01-30T10:48:42;4.70;99.90
12130;DHT22;6128;59.340;18.040;2024-01-30T10:51:11;4.70;99.90
12130;DHT22;6128;59.340;18.040;2024-01-30T10:53:39;4.70;99.90
12130;DHT22;6128;59.340;18.040;2024-01-30T10:56:08;4.70;99.90
12130;DHT22;6128;59.340;18.040;2024-01-30T10:58:37;4.70;99.90
12130;DHT22;6128;59.340;18.040;2024-01-30T11:01:05;4.70;99.90
12130;DHT22;6128;59.340;18.040;2024-01-30T11:03:33;4.70;99.90
12130;DHT22;6128;59.340;18.040;2024-01-30T11:06:02;4.60;99.90
12130;DHT22;6128;59.340;18.040;2024-01-30T11:08:32;4.60;99.90
12130;DHT22;6128;59.340;18.040;2024-01-30T11:10:59;4.60;99.90
12130;DHT22;6128;59.340;18.040;2024-01-30T11:13:31;4.60;99.90
12130;DHT22;6128;59.340;18.040;2024-01-30T11:16:00;4.70;99.90
12130;DHT22;6128;59.340;18.040;2024-01-30T11:18:30;4.70;99.90
12130;DHT22;6128;59.340;18.040;2024-01-30T11:20:57;4.70;99.90
12130;DHT22;6128;59.340;18.040;2024-01-30T11:23:27;4.70;99.90
12130;DHT22;6128;59.340;18.040;2024-01-30T11:25:55;4.80;99.90
12130;DHT22;6128;59.340;18.040;2024-01-30T11:28:23;4.80;99.90
12130;DHT22;6128;59.340;18.040;2024-01-30T11:31:02;4.90;99.90
12130;DHT22;6128;59.340;18.040;2024-01-30T11:33:30;4.90;99.90
12130;DHT22;6128;59.340;18.040;2024-01-30T11:35:58;4.90;99.90
12130;DHT22;6128;59.340;18.040;2024-01-30T11:38:26;4.90;99.90
12130;DHT22;6128;59.340;18.040;2024-01-30T11:40:55;4.90;99.90
12130;DHT22;6128;59.340;18.040;2024-01-30T11:43:23;4.90;99.90
12130;DHT22;6128;59.340;18.040;2024-01-30T11:45:52;4.90;99.90
12130;DHT22;6128;59.340;18.040;2024-01-30T11:48:19;4.90;99.90
12130;DHT22;6128;59.340;18.040;2024-01-30T11:50:46;4.90;99.90
12130;DHT22;6128;59.340;18.040;2024-01-30T11:53:14;4.90;99.90
12130;DHT22;6128;59.340;18.040;2024-01-30T11:55:42;4.90;99.90
12130;DHT22;6128;59.340;18.040;2024-01-30T11:58:16;4.80;99.90
12130;DHT22;6128;59.340;18.040;2024-01-30T12:00:43;4.90;99.90
12130;DHT22;6128;59.340;18.040;2024-01-30T12:03:11;4.90;99.90
12130;DHT22;6128;59.340;18.040;2024-01-30T12:05:38;4.90;99.90
12130;DHT22;6128;59.340;18.040;2024-01-30T12:08:14;5.00;99.90
12130;DHT22;6128;59.340;18.040;2024-01-30T12:10:42;5.00;99.90
12130;DHT22;6128;59.340;18.040;2024-01-30T12:13:09;5.00;99.90
12130;DHT22;6128;59.340;18.040;2024-01-30T12:15:36;4.90;99.90
12130;DHT22;6128;59.340;18.040;2024-01-30T12:18:06;4.90;99.90
12130;DHT22;6128;59.340;18.040;2024-01-30T12:20:35;4.90;99.90
12130;DHT22;6128;59.340;18.040;2024-01-30T12:23:02;4.90;99.90
12130;DHT22;6128;59.340;18.040;2024-01-30T12:25:29;4.90;99.90
12130;DHT22;6128;59.340;18.040;2024-01-30T12:27:58;4.90;99.90
12130;DHT22;6128;59.340;18.040;2024-01-30T12:30:25;4.90;99.90
12130;DHT22;6128;59.340;18.040;2024-01-30T12:32:52;4.90;99.90
12130;DHT22;6128;59.340;18.040;2024-01-30T12:35:20;4.90;99.90
12130;DHT22;6128;59.340;18.040;2024-01-30T12:37:49;4.90;99.90
12130;DHT22;6128;59.340;18.040;2024-01-30T12:40:17;4.80;99.90
12130;DHT22;6128;59.340;18.040;2024-01-30T12:42:46;4.80;99.90
12130;DHT22;6128;59.340;18.040;2024-01-30T12:45:15;4.80;99.90
12130;DHT22;6128;59.340;18.040;2024-01-30T12:47:45;4.80;99.90
12130;DHT22;6128;59.340;18.040;2024-01-30T12:50:12;4.80;99.90
12130;DHT22;6128;59.340;18.040;2024-01-30T12:52:42;4.70;99.90
12130;DHT22;6128;59.340;18.040;2024-01-30T12:55:10;4.80;99.90
12130;DHT22;6128;59.340;18.040;2024-01-30T12:57:37;4.80;99.90
12130;DHT22;6128;59.340;18.040;2024-01-30T13:00:06;4.80;99.90
12130;DHT22;6128;59.340;18.040;2024-01-30T13:02:33;4.80;99.90
12130;DHT22;6128;59.340;18.040;2024-01-30T13:05:03;4.80;99.90
12130;DHT22;6128;59.340;18.040;2024-01-30T13:07:30;4.80;99.90
12130;DHT22;6128;59.340;18.040;2024-01-30T13:09:57;4.70;99.90
12130;DHT22;6128;59.340;18.040;2024-01-30T13:12:29;4.70;99.90
12130;DHT22;6128;59.340;18.040;2024-01-30T13:14:58;4.70;99.90
12130;DHT22;6128;59.340;18.040;2024-01-30T13:17:26;4.70;99.90
12130;DHT22;6128;59.340;18.040;2024-01-30T13:19:53;4.60;99.90
12130;DHT22;6128;59.340;18.040;2024-01-30T13:22:20;4.60;99.90
12130;DHT22;6128;59.340;18.040;2024-01-30T13:24:47;4.70;99.90
12130;DHT22;6128;59.340;18.040;2024-01-30T13:27:15;4.60;99.90
12130;DHT22;6128;59.340;18.040;2024-01-30T13:29:43;4.60;99.90
12130;DHT22;6128;59.340;18.040;2024-01-30T13:32:10;4.60;99.90
12130;DHT22;6128;59.340;18.040;2024-01-30T13:34:37;4.60;99.90
12130;DHT22;6128;59.340;18.040;2024-01-30T13:37:06;4.60;99.90
12130;DHT22;6128;59.340;18.040;2024-01-30T13:39:33;4.60;99.90
12130;DHT22;6128;59.340;18.040;2024-01-30T13:42:00;4.50;99.90
12130;DHT22;6128;59.340;18.040;2024-01-30T13:44:27;4.50;99.90
12130;DHT22;6128;59.340;18.040;2024-01-30T13:46:55;4.50;99.90
12130;DHT22;6128;59.340;18.040;2024-01-30T13:49:22;4.50;99.90
12130;DHT22;6128;59.340;18.040;2024-01-30T13:51:49;4.40;99.90
12130;DHT22;6128;59.340;18.040;2024-01-30T13:54:16;4.40;99.90
12130;DHT22;6128;59.340;18.040;2024-01-30T13:56:43;4.50;99.90
12130;DHT22;6128;59.340;18.040;2024-01-30T13:59:10;4.40;99.90
12130;DHT22;6128;59.340;18.040;2024-01-30T14:01:37;4.50;99.90
12130;DHT22;6128;59.340;18.040;2024-01-30T14:04:06;4.50;99.90
12130;DHT22;6128;59.340;18.040;2024-01-30T14:06:33;4.50;99.90
12130;DHT22;6128;59.340;18.040;2024-01-30T14:09:00;4.50;99.90
12130;DHT22;6128;59.340;18.040;2024-01-30T14:11:27;4.50;99.90
12130;DHT22;6128;59.340;18.040;2024-01-30T14:13:54;4.50;99.90
12130;DHT22;6128;59.340;18.040;2024-01-30T14:16:21;4.50;99.90
12130;DHT22;6128;59.340;18.040;2024-01-30T14:18:50;4.50;99.90
12130;DHT22;6128;59.340;18.040;2024-01-30T14:21:18;4.50;99.90
12130;DHT22;6128;59.340;18.040;2024-01-30T14:23:45;4.50;99.90
12130;DHT22;6128;59.340;18.040;2024-01-30T14:26:13;4.40;99.90
12130;DHT22;6128;59.340;18.040;2024-01-30T14:28:40;4.40;99.90
12130;DHT22;6128;59.340;18.040;2024-01-30T14:31:07;4.40;99.90
12130;DHT22;6128;59.340;18.040;2024-01-30T14:33:34;4.40;99.90
12130;DHT22;6128;59.340;18.040;2024-01-30T14:36:01;4.30;99.90
12130;DHT22;6128;59.340;18.040;2024-01-30T14:38:29;4.30;99.90
12130;DHT22;6128;59.340;18.040;2024-01-30T14:40:57;4.30;99.90
12130;DHT22;6128;59.340;18.040;2024-01-30T14:43:24;4.30;99.90
12130;DHT22;6128;59.340;18.040;2024-01-30T14:45:51;4.30;99.90
12130;DHT22;6128;59.340;18.040;2024-01-30T14:48:18;4.30;99.90
12130;DHT22;6128;59.340;18.040;2024-01-30T14:50:45;4.30;99.90
12130;DHT22;6128;59.340;18.040;2024-01-30T14:53:12;4.30;99.90
12130;DHT22;6128;59.340;18.040;2024-01-30T14:55:41;4.30;99.90
12130;DHT22;6128;59.340;18.040;2024-01-30T14:58:08;4.20;99.90
12130;DHT22;6128;59.340;18.040;2024-01-30T15:00:35;4.20;99.90
12130;DHT22;6128;59.340;18.040;2024-01-30T15:03:04;4.20;99.90
12130;DHT22;6128;59.340;18.040;2024-01-30T15:05:31;4.20;99.90
12130;DHT22;6128;59.340;18.040;2024-01-30T15:07:58;4.20;99.90
12130;DHT22;6128;59.340;18.040;2024-01-30T15:10:25;4.20;99.90
12130;DHT22;6128;59.340;18.040;2024-01-30T15:12:54;4.20;99.90
12130;DHT22;6128;59.340;18.040;2024-01-30T15:15:21;4.20;99.90
12130;DHT22;6128;59.340;18.040;2024-01-30T15:17:48;4.20;99.90
12130;DHT22;6128;59.340;18.040;2024-01-30T15:20:15;4.20;99.90
12130;DHT22;6128;59.340;18.040;2024-01-30T15:22:43;4.10;99.90
12130;DHT22;6128;59.340;18.040;2024-01-30T15:25:11;4.10;99.90
12130;DHT22;6128;59.340;18.040;2024-01-30T15:27:38;4.10;99.90
12130;DHT22;6128;59.340;18.040;2024-01-30T15:30:07;4.10;99.90
12130;DHT22;6128;59.340;18.040;2024-01-30T15:32:35;4.10;99.90
12130;DHT22;6128;59.340;18.040;2024-01-30T15:35:03;4.10;99.90
12130;DHT22;6128;59.340;18.040;2024-01-30T15:37:31;4.10;99.90
12130;DHT22;6128;59.340;18.040;2024-01-30T15:39:58;4.10;99.90
12130;DHT22;6128;59.340;18.040;2024-01-30T15:42:26;4.10;99.90
12130;DHT22;6128;59.340;18.040;2024-01-30T15:44:53;4.10;99.90
12130;DHT22;6128;59.340;18.040;2024-01-30T15:47:21;4.10;99.90